createdAt,value
2023-07-16T00:04:15.212Z,100827.00
2023-07-16T00:09:21.231Z,100823.00
2023-07-16T00:14:24.123Z,100823.00
2023-07-16T00:19:26.917Z,100816.00
2023-07-16T00:24:31.169Z,100816.00
2023-07-16T00:29:33.861Z,100814.00
2023-07-16T00:34:36.888Z,100808.00
2023-07-16T00:39:40.969Z,100805.00
2023-07-16T00:44:43.612Z,100790.00
2023-07-16T00:49:46.793Z,100795.00
2023-07-16T00:54:51.522Z,100790.00
2023-07-16T00:59:54.309Z,100782.00
2023-07-16T01:04:57.232Z,100770.00
2023-07-16T01:10:02.580Z,100767.00
2023-07-16T01:15:06.910Z,100770.00
2023-07-16T01:20:11.087Z,100753.00
2023-07-16T01:25:57.275Z,100762.00
2023-07-16T01:31:02.740Z,100759.00
2023-07-16T01:36:07.229Z,100767.00
2023-07-16T01:41:09.955Z,100769.00
2023-07-16T01:46:14.752Z,100763.00
2023-07-16T01:51:17.879Z,100750.00
2023-07-16T01:56:20.525Z,100753.00
2023-07-16T02:01:26.104Z,100745.00
2023-07-16T02:06:29.062Z,100739.00
2023-07-16T02:11:31.801Z,100745.00
2023-07-16T02:16:35.862Z,100747.00
2023-07-16T02:21:38.588Z,100740.00
2023-07-16T02:26:42.421Z,100739.00
2023-07-16T02:31:49.486Z,100736.00
2023-07-16T02:36:54.673Z,100741.00
2023-07-16T02:41:57.357Z,100724.00
2023-07-16T02:47:02.422Z,100722.00
2023-07-16T02:52:06.157Z,100714.00
2023-07-16T02:57:09.001Z,100714.00
2023-07-16T03:02:13.179Z,100710.00
2023-07-16T03:07:18.476Z,100719.00
2023-07-16T03:12:21.357Z,100724.00
2023-07-16T03:17:25.823Z,100735.00
2023-07-16T03:22:28.654Z,100738.00
2023-07-16T03:27:31.422Z,100732.00
2023-07-16T03:32:51.329Z,100734.00
2023-07-16T03:37:56.077Z,100739.00
2023-07-16T03:43:01.168Z,100724.00
2023-07-16T03:48:06.783Z,100722.00
2023-07-16T03:53:09.912Z,100724.00
2023-07-16T03:58:13.206Z,100734.00
2023-07-16T04:03:17.468Z,100741.00
2023-07-16T04:08:20.453Z,100746.00
2023-07-16T04:13:23.432Z,100748.00
2023-07-16T04:18:27.687Z,100733.00
2023-07-16T04:23:30.491Z,100731.00
2023-07-16T04:28:33.316Z,100722.00
2023-07-16T04:33:37.446Z,100710.00
2023-07-16T04:38:40.412Z,100717.00
2023-07-16T04:43:43.326Z,100719.00
2023-07-16T04:48:47.931Z,100727.00
2023-07-16T04:53:52.788Z,100723.00
2023-07-16T04:58:55.278Z,100704.00
2023-07-16T05:04:02.397Z,100707.00
2023-07-16T05:09:05.086Z,100710.00
2023-07-16T05:14:07.686Z,100707.00
2023-07-16T05:19:12.151Z,100702.00
2023-07-16T05:24:14.896Z,100694.00
2023-07-16T05:29:17.547Z,100730.00
2023-07-16T05:34:21.726Z,100787.00
2023-07-16T05:39:24.448Z,100806.00
2023-07-16T05:44:27.016Z,100795.00
2023-07-16T05:49:31.270Z,100795.00
2023-07-16T05:54:33.977Z,100793.00
2023-07-16T05:59:36.813Z,100790.00
2023-07-16T06:04:41.175Z,100766.00
2023-07-16T06:09:43.889Z,100768.00
2023-07-16T06:14:51.204Z,100767.00
2023-07-16T06:19:55.540Z,100772.00
2023-07-16T06:24:58.431Z,100779.00
2023-07-16T06:30:01.225Z,100790.00
2023-07-16T06:35:06.377Z,100791.00
2023-07-16T06:40:13.071Z,100791.00
2023-07-16T06:45:16.253Z,100799.00
2023-07-16T06:50:20.706Z,100817.00
2023-07-16T06:55:23.617Z,100817.00
2023-07-16T07:00:26.834Z,100824.00
2023-07-16T07:05:31.247Z,100818.00
2023-07-16T07:10:34.122Z,100819.00
2023-07-16T07:15:39.536Z,100818.00
2023-07-16T07:20:44.265Z,100836.00
2023-07-16T07:25:50.949Z,100826.00
2023-07-16T07:30:53.646Z,100850.00
2023-07-16T07:36:06.065Z,100863.00
2023-07-16T07:41:08.947Z,100867.00
2023-07-16T07:46:11.761Z,100876.00
2023-07-16T07:51:16.605Z,100894.00
2023-07-16T07:56:21.523Z,100888.00
2023-07-16T08:01:24.332Z,100877.00
2023-07-16T08:06:28.581Z,100865.00
2023-07-16T08:11:31.388Z,100860.00
2023-07-16T08:16:34.290Z,100867.00
2023-07-16T08:21:38.732Z,100853.00
2023-07-16T08:26:41.419Z,100858.00
2023-07-16T08:31:44.311Z,100865.00
2023-07-16T08:36:48.631Z,100877.00
2023-07-16T08:41:51.930Z,100878.00
2023-07-16T08:46:55.398Z,100883.00
2023-07-16T08:52:02.154Z,100888.00
2023-07-16T08:57:06.311Z,100901.00
2023-07-16T09:02:09.427Z,100912.00
2023-07-16T09:07:13.909Z,100903.00
2023-07-16T09:12:16.722Z,100913.00
2023-07-16T09:17:22.860Z,100924.00
2023-07-16T09:22:27.184Z,100941.00
2023-07-16T09:27:30.760Z,100942.00
2023-07-16T09:32:40.924Z,100938.00
2023-07-16T09:37:46.107Z,100947.00
2023-07-16T09:42:50.637Z,100955.00
2023-07-16T09:47:53.860Z,100961.00
2023-07-16T09:52:59.180Z,100978.00
2023-07-16T09:58:08.122Z,100981.00
2023-07-16T10:03:11.477Z,100991.00
2023-07-16T10:08:21.312Z,100994.00
2023-07-16T10:13:25.994Z,101010.00
2023-07-16T10:18:31.889Z,101008.00
2023-07-16T10:23:42.333Z,101017.00
2023-07-16T10:28:46.235Z,101022.00
2023-07-16T10:34:02.221Z,101026.00
2023-07-16T10:39:07.312Z,101040.00
2023-07-16T10:44:15.996Z,101046.00
2023-07-16T10:49:29.069Z,101043.00
2023-07-16T10:54:34.186Z,101054.00
2023-07-16T10:59:40.177Z,101048.00
2023-07-16T11:04:48.292Z,101056.00
2023-07-16T11:09:55.158Z,101050.00
2023-07-16T11:14:58.722Z,101060.00
2023-07-16T11:20:02.390Z,101055.00
2023-07-16T11:25:13.525Z,101066.00
2023-07-16T11:30:16.627Z,101084.00
2023-07-16T11:35:21.554Z,101087.00
2023-07-16T11:40:26.740Z,101091.00
2023-07-16T11:45:29.621Z,101121.00
2023-07-16T11:50:32.928Z,101135.00
2023-07-16T11:55:37.494Z,101065.00
2023-07-16T12:00:40.703Z,101099.00
2023-07-16T12:05:53.329Z,101105.00
2023-07-16T12:11:02.431Z,101096.00
2023-07-16T12:16:07.816Z,101095.00
2023-07-16T12:21:11.648Z,101092.00
2023-07-16T12:26:17.144Z,101082.00
2023-07-16T12:31:20.966Z,101102.00
2023-07-16T12:36:24.565Z,101091.00
2023-07-16T12:41:31.543Z,101096.00
2023-07-16T12:46:34.974Z,101086.00
2023-07-16T12:51:38.533Z,101096.00
2023-07-16T12:56:43.700Z,101083.00
2023-07-16T13:01:47.235Z,101096.00
2023-07-16T13:06:50.556Z,101110.00
2023-07-16T13:11:55.075Z,101092.00
2023-07-16T13:16:58.514Z,101096.00
2023-07-16T13:22:01.710Z,101092.00
2023-07-16T13:27:06.923Z,101105.00
2023-07-16T13:32:14.660Z,101093.00
2023-07-16T13:37:17.974Z,101090.00
2023-07-16T13:42:26.325Z,101104.00
2023-07-16T13:47:30.446Z,101103.00
2023-07-16T13:52:33.444Z,101122.00
2023-07-16T13:57:37.952Z,101117.00
2023-07-16T14:02:41.269Z,101121.00
2023-07-16T14:07:44.436Z,101114.00
2023-07-16T14:12:57.113Z,101100.00
2023-07-16T14:18:00.237Z,101096.00
2023-07-16T14:23:03.798Z,101087.00
2023-07-16T14:28:09.122Z,101091.00
2023-07-16T14:33:12.380Z,101077.00
2023-07-16T14:38:15.502Z,101085.00
2023-07-16T14:43:20.574Z,101085.00
2023-07-16T14:48:23.460Z,101077.00
2023-07-16T14:53:29.031Z,101070.00
2023-07-16T14:58:37.413Z,101060.00
2023-07-16T15:04:18.042Z,101061.00
2023-07-16T15:09:39.785Z,101065.00
2023-07-16T15:22:43.778Z,101060.00
2023-07-16T15:28:27.633Z,101058.00
2023-07-16T15:34:19.598Z,101063.00
2023-07-16T15:40:31.466Z,101048.00
2023-07-16T15:53:57.189Z,101043.00
2023-07-16T16:00:27.323Z,101035.00
2023-07-16T16:05:54.477Z,101034.00
2023-07-16T17:13:11.737Z,101020.00
2023-07-16T17:32:14.558Z,101029.00
2023-07-16T17:51:20.851Z,101056.00
2023-07-16T18:41:28.925Z,101101.00
2023-07-16T18:46:49.267Z,101099.00
2023-07-16T18:51:59.668Z,101099.00
2023-07-16T19:13:52.827Z,101152.00
2023-07-16T19:19:05.058Z,101163.00
2023-07-16T19:24:28.536Z,101177.00
2023-07-16T19:30:06.327Z,101215.00
2023-07-16T19:41:21.896Z,101209.00
2023-07-16T19:51:47.321Z,101216.00
2023-07-16T19:56:58.164Z,101209.00
2023-07-16T20:02:09.386Z,101209.00
2023-07-16T20:12:59.904Z,101207.00
2023-07-16T20:18:14.237Z,101204.00
2023-07-16T20:23:59.809Z,101213.00
2023-07-16T20:29:23.979Z,101213.00
2023-07-16T20:51:26.014Z,101225.00
2023-07-16T20:57:07.600Z,101232.00
2023-07-16T21:02:26.141Z,101229.00
2023-07-16T21:07:39.129Z,101234.00
2023-07-16T21:13:06.913Z,101221.00
2023-07-16T21:18:11.581Z,101243.00
2023-07-16T21:23:14.818Z,101253.00
2023-07-16T21:28:17.772Z,101258.00
2023-07-16T21:33:21.894Z,101246.00
2023-07-16T21:38:24.392Z,101254.00
2023-07-16T21:43:26.984Z,101260.00
2023-07-16T21:48:31.093Z,101265.00
2023-07-16T21:53:33.604Z,101264.00
2023-07-16T21:58:36.258Z,101257.00
2023-07-16T22:03:40.256Z,101260.00
2023-07-16T22:08:42.918Z,101250.00
2023-07-16T22:13:45.615Z,101251.00
2023-07-16T22:18:49.817Z,101256.00
2023-07-16T22:23:52.373Z,101255.00
2023-07-16T22:28:55.868Z,101250.00
2023-07-16T22:33:59.778Z,101255.00
2023-07-16T22:39:02.336Z,101261.00
2023-07-16T22:44:05.230Z,101271.00
2023-07-16T22:49:09.154Z,101267.00
2023-07-16T22:54:11.694Z,101255.00
2023-07-16T22:59:14.158Z,101262.00
2023-07-16T23:04:18.069Z,101270.00
2023-07-16T23:09:20.621Z,101268.00
2023-07-16T23:14:26.172Z,101267.00
2023-07-16T23:19:30.053Z,101267.00
2023-07-16T23:24:32.579Z,101265.00
2023-07-16T23:29:35.067Z,101274.00
2023-07-16T23:34:38.936Z,101263.00
2023-07-16T23:39:44.677Z,101263.00
2023-07-16T23:44:47.369Z,101264.00
2023-07-16T23:49:51.395Z,101272.00
2023-07-16T23:54:54.193Z,101273.00
2023-07-16T23:59:56.779Z,101282.00
